Time;durP1;ratioP1;P1;durP2;ratioP2;P2;SDS_P1;SDS_P2;PMS_P1;PMS_P2;Temp;Humidity;BMP_temperature;BMP_pressure;BME280_temperature;BME280_humidity;BME280_pressure;Samples;Min_cycle;Max_cycle;Signal;HPM_P1;HPM_P2
2022/09/26 00:01:13;;;;;;;;;;;;;;;7.13;100.00;98230.19;2285005;77;20421;-57
2022/09/26 00:04:15;;;;;;;;;;;;;;;7.10;100.00;98229.89;2292279;77;20104;-57
2022/09/26 00:07:17;;;;;;;;;;;;;;;7.08;100.00;98228.67;2286079;77;20167;-57
2022/09/26 00:10:18;;;;;;;;;;;;;;;7.04;100.00;98226.30;2278387;77;20092;-57
2022/09/26 00:13:19;;;;;;;;;;;;;;;7.06;100.00;98222.69;2287667;77;20101;-56
2022/09/26 00:16:21;;;;;;;;;;;;;;;7.02;100.00;98219.03;2285842;77;20426;-56
2022/09/26 00:19:23;;;;;;;;;;;;;;;6.98;100.00;98217.52;2284826;77;20179;-56
2022/09/26 00:22:25;;;;;;;;;;;;;;;6.89;100.00;98211.06;2285680;77;20213;-57
2022/09/26 00:25:27;;;;;;;;;;;;;;;6.97;100.00;98202.80;2285788;77;20426;-58
2022/09/26 00:28:28;;;;;;;;;;;;;;;6.94;100.00;98206.44;2285651;77;20088;-58
2022/09/26 00:31:30;;;;;;;;;;;;;;;6.90;100.00;98202.32;2283250;77;20092;-56
2022/09/26 00:34:31;;;;;;;;;;;;;;;6.85;100.00;98196.06;2285285;77;20096;-57
2022/09/26 00:37:33;;;;;;;;;;;;;;;6.83;100.00;98194.47;2287868;77;20119;-56
2022/09/26 00:40:35;;;;;;;;;;;;;;;6.82;100.00;98194.08;2282217;77;20386;-57
2022/09/26 00:43:36;;;;;;;;;;;;;;;6.80;100.00;98188.13;2284980;77;20159;-56
2022/09/26 00:46:38;;;;;;;;;;;;;;;6.85;100.00;98185.64;2287571;77;20100;-57
2022/09/26 00:49:40;;;;;;;;;;;;;;;7.01;100.00;98175.62;2287269;77;20403;-57
2022/09/26 00:52:41;;;;;;;;;;;;;;;7.03;100.00;98168.10;2287194;77;20085;-57
2022/09/26 00:55:42;;;;;;;;;;;;;;;7.00;100.00;98170.89;2290816;77;20108;-56
2022/09/26 00:58:44;;;;;;;;;;;;;;;6.94;100.00;98176.45;2288663;77;20095;-56
2022/09/26 01:01:45;;;;;;;;;;;;;;;6.94;100.00;98177.77;2284035;77;20100;-57
2022/09/26 01:04:47;;;;;;;;;;;;;;;6.87;100.00;98178.56;2289763;77;20092;-58
2022/09/26 01:07:48;;;;;;;;;;;;;;;6.90;100.00;98171.03;2286201;77;20114;-57
2022/09/26 01:10:49;;;;;;;;;;;;;;;6.81;100.00;98178.91;2287293;77;20406;-57
2022/09/26 01:13:51;;;;;;;;;;;;;;;6.72;100.00;98165.08;2286838;77;20230;-56
2022/09/26 01:16:52;;;;;;;;;;;;;;;6.71;100.00;98169.45;2286582;77;20383;-59
2022/09/26 01:19:54;;;;;;;;;;;;;;;6.81;100.00;98164.58;2284769;77;20151;-57
2022/09/26 01:22:55;;;;;;;;;;;;;;;6.86;100.00;98165.14;2284106;77;20080;-57
2022/09/26 01:25:57;;;;;;;;;;;;;;;6.87;100.00;98157.70;2285046;77;20104;-57
2022/09/26 01:28:58;;;;;;;;;;;;;;;6.80;100.00;98160.28;2284573;77;20095;-57
2022/09/26 01:35:03;;;;;;;;;;;;;;;6.84;100.00;98143.98;2241300;77;20115;-57
2022/09/26 01:38:04;;;;;;;;;;;;;;;6.74;100.00;98148.91;2286066;77;20100;-56
2022/09/26 01:41:06;;;;;;;;;;;;;;;6.67;100.00;98144.48;2284132;77;20131;-57
2022/09/26 01:44:07;;;;;;;;;;;;;;;6.74;100.00;98147.60;2288049;77;20088;-57
2022/09/26 01:47:09;;;;;;;;;;;;;;;6.85;100.00;98145.67;2282487;77;20092;-57
2022/09/26 01:50:10;;;;;;;;;;;;;;;6.92;100.00;98142.66;2287287;77;20084;-57
2022/09/26 01:53:12;;;;;;;;;;;;;;;7.04;100.00;98140.24;2286407;77;20108;-56
2022/09/26 01:56:14;;;;;;;;;;;;;;;7.08;100.00;98134.79;2286299;77;20119;-56
2022/09/26 01:59:15;;;;;;;;;;;;;;;7.07;100.00;98134.88;2286357;77;20104;-56
2022/09/26 02:02:18;;;;;;;;;;;;;;;7.16;100.00;98138.72;2286290;77;20154;-57
2022/09/26 02:05:19;;;;;;;;;;;;;;;7.22;100.00;98130.05;2286192;77;20092;-57
2022/09/26 02:08:23;;;;;;;;;;;;;;;7.19;100.00;98139.37;2285507;77;20124;-57
2022/09/26 02:11:24;;;;;;;;;;;;;;;7.24;100.00;98136.48;2257570;78;20224;-57
2022/09/26 02:14:26;;;;;;;;;;;;;;;7.20;100.00;98137.62;2286492;77;20387;-57
2022/09/26 02:17:27;;;;;;;;;;;;;;;7.20;100.00;98139.75;2286698;77;20116;-56
2022/09/26 02:20:29;;;;;;;;;;;;;;;7.27;100.00;98134.55;2287686;77;20099;-56
2022/09/26 02:23:30;;;;;;;;;;;;;;;7.35;100.00;98141.09;2286330;77;20124;-57
2022/09/26 02:26:32;;;;;;;;;;;;;;;7.30;100.00;98140.06;2285799;77;20084;-57
2022/09/26 02:29:34;;;;;;;;;;;;;;;7.27;100.00;98137.16;2287468;77;20505;-57
2022/09/26 02:32:36;;;;;;;;;;;;;;;7.19;100.00;98126.80;2285412;77;20182;-56
2022/09/26 02:38:41;;;;;;;;;;;;;;;7.13;100.00;98121.95;2252102;77;20127;-57
2022/09/26 02:41:42;;;;;;;;;;;;;;;7.13;100.00;98118.87;2287502;77;20122;-57
2022/09/26 02:44:44;;;;;;;;;;;;;;;7.23;100.00;98121.78;2285746;77;20124;-56
2022/09/26 02:47:46;;;;;;;;;;;;;;;7.31;100.00;98116.94;2288512;77;20099;-57
2022/09/26 02:50:47;;;;;;;;;;;;;;;7.33;100.00;98108.57;2288998;77;20092;-57
2022/09/26 02:53:49;;;;;;;;;;;;;;;7.38;100.00;98109.59;2292930;77;20108;-57
2022/09/26 02:56:51;;;;;;;;;;;;;;;7.36;100.00;98108.38;2287031;77;20391;-57
2022/09/26 02:59:52;;;;;;;;;;;;;;;7.40;100.00;98104.67;2285828;77;20104;-57
2022/09/26 03:02:53;;;;;;;;;;;;;;;7.44;100.00;98098.34;2288553;77;20123;-57
2022/09/26 03:05:55;;;;;;;;;;;;;;;7.52;100.00;98095.26;2285578;77;20092;-57
2022/09/26 03:08:56;;;;;;;;;;;;;;;7.59;100.00;98094.44;2285808;77;20108;-57
2022/09/26 03:11:58;;;;;;;;;;;;;;;7.62;100.00;98097.68;2290264;77;20080;-57
2022/09/26 03:14:59;;;;;;;;;;;;;;;7.65;100.00;98102.36;2286163;77;20104;-56
2022/09/26 03:18:01;;;;;;;;;;;;;;;7.71;100.00;98099.38;2287510;77;20096;-57
2022/09/26 03:21:03;;;;;;;;;;;;;;;7.73;100.00;98093.58;2287501;77;20103;-57
2022/09/26 03:24:05;;;;;;;;;;;;;;;7.78;100.00;98088.45;2288686;77;20112;-57
2022/09/26 03:27:06;;;;;;;;;;;;;;;7.83;100.00;98083.41;2287300;77;20131;-57
2022/09/26 03:30:07;;;;;;;;;;;;;;;7.89;100.00;98081.27;2287292;77;20378;-57
2022/09/26 03:33:09;;;;;;;;;;;;;;;7.96;100.00;98074.73;2289167;78;20108;-57
2022/09/26 03:36:10;;;;;;;;;;;;;;;8.01;100.00;98077.53;2286109;77;20100;-56
2022/09/26 03:39:12;;;;;;;;;;;;;;;8.03;100.00;98067.81;2283844;77;20108;-57
2022/09/26 03:42:15;;;;;;;;;;;;;;;8.08;100.00;98060.06;2287913;77;20135;-57
2022/09/26 03:45:17;;;;;;;;;;;;;;;8.15;100.00;98059.22;2287069;77;20103;-57
2022/09/26 03:48:19;;;;;;;;;;;;;;;8.23;100.00;98058.72;2287650;77;20403;-56
2022/09/26 03:51:20;;;;;;;;;;;;;;;8.29;100.00;98044.81;2289403;77;20101;-57
2022/09/26 03:54:22;;;;;;;;;;;;;;;8.27;100.00;98044.05;2283697;77;20089;-57
2022/09/26 03:57:24;;;;;;;;;;;;;;;8.36;100.00;98043.10;2278602;77;21424;-57
2022/09/26 04:00:26;;;;;;;;;;;;;;;8.35;100.00;98041.41;2283661;78;20108;-56
2022/09/26 04:03:27;;;;;;;;;;;;;;;8.33;100.00;98038.45;2286584;77;20391;-58
2022/09/26 04:06:28;;;;;;;;;;;;;;;8.33;100.00;98037.59;2284862;77;20108;-57
2022/09/26 04:09:30;;;;;;;;;;;;;;;8.40;100.00;98038.05;2286238;77;20398;-57
2022/09/26 04:12:31;;;;;;;;;;;;;;;8.44;100.00;98035.61;2287322;77;20085;-57
2022/09/26 04:15:34;;;;;;;;;;;;;;;8.40;100.00;98040.18;2280647;77;20108;-57
2022/09/26 04:18:35;;;;;;;;;;;;;;;8.37;100.00;98031.72;2286657;77;20096;-57
2022/09/26 04:21:39;;;;;;;;;;;;;;;8.35;100.00;98038.35;2285435;77;20093;-56
2022/09/26 04:24:40;;;;;;;;;;;;;;;8.29;100.00;98032.22;2256204;77;20103;-57
2022/09/26 04:27:42;;;;;;;;;;;;;;;8.31;100.00;98021.19;2291011;77;20096;-56
2022/09/26 04:30:43;;;;;;;;;;;;;;;8.33;100.00;98015.39;2287459;77;20179;-56
2022/09/26 04:33:45;;;;;;;;;;;;;;;8.35;100.00;98015.28;2284306;77;20484;-57
2022/09/26 04:36:50;;;;;;;;;;;;;;;8.33;100.00;98015.39;2287878;77;20189;-57
2022/09/26 04:39:49;;;;;;;;;;;;;;;8.32;100.00;98018.96;2254378;77;20366;-57
2022/09/26 04:42:51;;;;;;;;;;;;;;;8.32;100.00;98014.56;2285932;77;20104;-58
2022/09/26 04:45:53;;;;;;;;;;;;;;;8.27;100.00;98004.86;2284214;77;20119;-57
2022/09/26 04:48:54;;;;;;;;;;;;;;;8.26;100.00;98009.73;2287263;77;20159;-57
2022/09/26 04:51:56;;;;;;;;;;;;;;;8.30;100.00;98017.75;2287090;77;20104;-57
2022/09/26 04:54:57;;;;;;;;;;;;;;;8.36;100.00;98006.52;2285821;77;20391;-57
2022/09/26 04:58:00;;;;;;;;;;;;;;;8.42;100.00;98008.72;2286157;77;20108;-57
2022/09/26 05:01:02;;;;;;;;;;;;;;;8.59;100.00;98009.82;2282208;77;20091;-57
2022/09/26 05:04:04;;;;;;;;;;;;;;;8.68;100.00;98005.75;2283922;77;20112;-57
2022/09/26 05:07:05;;;;;;;;;;;;;;;8.70;100.00;98012.19;2284715;77;20099;-58
2022/09/26 05:10:09;;;;;;;;;;;;;;;8.77;100.00;98023.44;2291025;77;20182;-57
2022/09/26 05:13:10;;;;;;;;;;;;;;;8.85;100.00;98016.41;2254938;77;20423;-57
2022/09/26 05:16:13;;;;;;;;;;;;;;;8.99;100.00;98018.93;2285900;77;20099;-57
2022/09/26 05:19:15;;;;;;;;;;;;;;;9.09;100.00;98020.91;2284815;77;20111;-57
2022/09/26 05:22:16;;;;;;;;;;;;;;;9.24;100.00;98025.56;2288159;77;20104;-56
2022/09/26 05:28:21;;;;;;;;;;;;;;;9.41;100.00;98022.66;2265035;77;20100;-56
2022/09/26 05:31:24;;;;;;;;;;;;;;;9.48;100.00;98019.12;2288727;77;20139;-57
2022/09/26 05:34:26;;;;;;;;;;;;;;;9.47;100.00;98016.16;2267794;77;20143;-57
2022/09/26 05:37:27;;;;;;;;;;;;;;;9.53;100.00;98017.03;2286558;77;20378;-57
2022/09/26 05:43:32;;;;;;;;;;;;;;;9.68;100.00;98012.48;2250022;77;20431;-57
2022/09/26 05:46:37;;;;;;;;;;;;;;;9.79;100.00;98012.58;2284071;77;20128;-56
2022/09/26 05:49:37;;;;;;;;;;;;;;;9.91;100.00;98006.93;2240134;78;20080;-57
2022/09/26 05:52:38;;;;;;;;;;;;;;;10.03;100.00;98010.48;2289450;77;20099;-57
2022/09/26 05:55:40;;;;;;;;;;;;;;;10.12;100.00;98012.91;2287650;77;20411;-57
2022/09/26 05:58:41;;;;;;;;;;;;;;;10.22;100.00;98007.36;2283568;77;20100;-57
2022/09/26 06:01:45;;;;;;;;;;;;;;;10.35;100.00;98006.85;2288741;77;20092;-57
2022/09/26 06:04:46;;;;;;;;;;;;;;;10.49;100.00;98006.34;2249837;78;20128;-57
2022/09/26 06:07:48;;;;;;;;;;;;;;;10.61;100.00;98006.72;2285485;77;20104;-58
2022/09/26 06:10:49;;;;;;;;;;;;;;;10.78;100.00;98007.27;2285281;77;20096;-57
2022/09/26 06:13:51;;;;;;;;;;;;;;;10.86;100.00;98006.19;2286045;77;20284;-57
2022/09/26 06:16:53;;;;;;;;;;;;;;;10.83;100.00;98005.11;2280959;77;20118;-57
2022/09/26 06:19:55;;;;;;;;;;;;;;;10.85;100.00;98000.61;2287519;77;20395;-57
2022/09/26 06:22:56;;;;;;;;;;;;;;;10.90;100.00;98001.08;2287051;77;20100;-58
2022/09/26 06:25:58;;;;;;;;;;;;;;;10.99;100.00;97998.23;2287151;77;20103;-57
2022/09/26 06:28:59;;;;;;;;;;;;;;;11.06;100.00;97998.98;2286316;77;20132;-57
2022/09/26 06:32:01;;;;;;;;;;;;;;;11.16;100.00;97994.33;2287095;77;20084;-57
2022/09/26 06:35:03;;;;;;;;;;;;;;;11.11;100.00;97996.00;2287448;77;20383;-57
2022/09/26 06:38:05;;;;;;;;;;;;;;;11.12;100.00;97994.20;2288719;77;20100;-57
2022/09/26 06:41:07;;;;;;;;;;;;;;;11.06;100.00;97998.13;2286630;77;20104;-57
2022/09/26 06:44:09;;;;;;;;;;;;;;;11.11;100.00;97992.06;2284691;77;20108;-57
2022/09/26 06:47:11;;;;;;;;;;;;;;;11.03;100.00;97986.09;2287115;77;20119;-57
2022/09/26 06:50:13;;;;;;;;;;;;;;;11.08;100.00;97987.05;2284756;77;20100;-58
2022/09/26 06:53:14;;;;;;;;;;;;;;;11.19;100.00;97990.16;2287827;77;20367;-58
2022/09/26 06:56:17;;;;;;;;;;;;;;;11.31;100.00;97992.33;2286958;77;20122;-58
2022/09/26 06:59:18;;;;;;;;;;;;;;;11.49;100.00;97991.36;2282748;77;20109;-58
2022/09/26 07:02:20;;;;;;;;;;;;;;;11.65;100.00;97988.37;2287575;77;20390;-57
2022/09/26 07:05:21;;;;;;;;;;;;;;;11.78;100.00;97993.86;2285195;77;20092;-57
2022/09/26 07:08:24;;;;;;;;;;;;;;;11.92;100.00;97992.77;2288002;77;20214;-58
2022/09/26 07:11:26;;;;;;;;;;;;;;;12.08;100.00;97999.44;2277402;77;20450;-57
2022/09/26 07:14:29;;;;;;;;;;;;;;;12.23;100.00;97996.06;2288136;77;20143;-57
2022/09/26 07:17:31;;;;;;;;;;;;;;;12.38;100.00;97998.74;2285606;77;20116;-57
2022/09/26 07:20:32;;;;;;;;;;;;;;;12.57;100.00;97999.87;2289466;77;20166;-57
2022/09/26 07:23:34;;;;;;;;;;;;;;;12.63;100.00;98006.78;2287417;77;20414;-58
2022/09/26 07:26:35;;;;;;;;;;;;;;;12.75;100.00;97997.52;2286165;77;20092;-58
2022/09/26 07:29:37;;;;;;;;;;;;;;;12.79;100.00;97998.94;2287640;77;20390;-58
2022/09/26 07:32:40;;;;;;;;;;;;;;;12.81;100.00;97992.59;2286831;77;20104;-57
2022/09/26 07:38:45;;;;;;;;;;;;;;;13.02;100.00;97997.50;2246754;77;20390;-57
2022/09/26 07:41:48;;;;;;;;;;;;;;;13.18;100.00;97997.86;2288299;77;20096;-57
2022/09/26 07:44:50;;;;;;;;;;;;;;;13.36;100.00;97994.65;2282907;77;20383;-57
2022/09/26 07:50:54;;;;;;;;;;;;;;;13.57;100.00;97994.12;2258461;77;20104;-57
2022/09/26 07:53:56;;;;;;;;;;;;;;;13.68;100.00;97998.47;2285490;77;20097;-57
2022/09/26 07:56:57;;;;;;;;;;;;;;;13.86;100.00;97997.33;2285875;77;20390;-58
2022/09/26 07:59:59;;;;;;;;;;;;;;;14.26;100.00;97996.44;2284698;77;20128;-57
2022/09/26 08:03:03;;;;;;;;;;;;;;;14.55;100.00;97999.11;2288297;77;20128;-57
2022/09/26 08:06:06;;;;;;;;;;;;;;;14.70;100.00;98001.36;2255110;77;20202;-57
2022/09/26 08:09:08;;;;;;;;;;;;;;;14.83;100.00;97997.11;2286898;77;20084;-58
2022/09/26 08:12:09;;;;;;;;;;;;;;;14.89;100.00;97992.08;2287218;77;20128;-57
2022/09/26 08:15:11;;;;;;;;;;;;;;;15.09;100.00;97993.38;2284210;77;20104;-57
2022/09/26 08:18:12;;;;;;;;;;;;;;;15.23;100.00;97988.14;2283896;77;20391;-57
2022/09/26 08:21:14;;;;;;;;;;;;;;;15.42;100.00;97987.23;2288535;77;20131;-57
2022/09/26 08:24:15;;;;;;;;;;;;;;;15.63;100.00;97984.84;2286905;77;20409;-58
2022/09/26 08:27:21;;;;;;;;;;;;;;;15.80;100.00;97978.80;2289598;77;20229;-58
2022/09/26 08:30:24;;;;;;;;;;;;;;;15.92;100.00;97978.13;2281305;77;20092;-58
2022/09/26 08:33:26;;;;;;;;;;;;;;;16.12;100.00;97973.55;2285189;77;20100;-58
2022/09/26 08:36:28;;;;;;;;;;;;;;;16.23;100.00;97975.14;2282644;77;20092;-58
2022/09/26 08:39:29;;;;;;;;;;;;;;;16.33;100.00;97965.30;2290453;77;20123;-58
2022/09/26 08:42:32;;;;;;;;;;;;;;;16.42;100.00;97964.89;2286421;77;20104;-58
2022/09/26 08:48:38;;;;;;;;;;;;;;;16.75;100.00;97972.63;2247502;77;20108;-58
2022/09/26 08:51:40;;;;;;;;;;;;;;;16.81;100.00;97967.22;2285213;77;20104;-58
2022/09/26 08:54:41;;;;;;;;;;;;;;;16.87;100.00;97963.94;2288594;77;20080;-58
2022/09/26 08:57:42;;;;;;;;;;;;;;;17.05;100.00;97961.77;2287546;77;20103;-58
2022/09/26 09:00:44;;;;;;;;;;;;;;;17.17;100.00;97959.68;2285268;77;20128;-58
2022/09/26 09:03:45;;;;;;;;;;;;;;;17.27;100.00;97954.62;2285139;77;20104;-58
2022/09/26 09:06:47;;;;;;;;;;;;;;;17.34;100.00;97962.78;2285346;78;20383;-58
2022/09/26 09:09:48;;;;;;;;;;;;;;;17.29;100.00;97962.41;2286684;77;20128;-58
2022/09/26 09:12:50;;;;;;;;;;;;;;;17.21;100.00;97960.56;2289809;77;20198;-58
2022/09/26 09:15:52;;;;;;;;;;;;;;;17.27;100.00;97965.22;2288709;77;20422;-58
2022/09/26 09:18:54;;;;;;;;;;;;;;;17.40;100.00;97965.30;2285600;77;20100;-58
2022/09/26 09:21:55;;;;;;;;;;;;;;;17.47;100.00;97965.81;2290211;77;20103;-58
2022/09/26 09:24:57;;;;;;;;;;;;;;;17.72;100.00;97955.81;2288775;77;20399;-58
2022/09/26 09:27:58;;;;;;;;;;;;;;;17.97;100.00;97953.61;2290770;77;20104;-58
2022/09/26 09:31:00;;;;;;;;;;;;;;;18.20;100.00;97952.15;2289130;77;20379;-58
2022/09/26 09:34:02;;;;;;;;;;;;;;;18.40;100.00;97954.81;2288654;77;20152;-58
2022/09/26 09:37:04;;;;;;;;;;;;;;;18.62;100.00;97948.04;2286788;77;20146;-59
2022/09/26 09:40:05;;;;;;;;;;;;;;;18.84;100.00;97945.70;2283138;77;20722;-58
2022/09/26 09:43:07;;;;;;;;;;;;;;;19.01;100.00;97940.72;2284950;77;20127;-58
2022/09/26 09:46:09;;;;;;;;;;;;;;;19.23;100.00;97937.02;2290636;77;20437;-58
2022/09/26 09:49:10;;;;;;;;;;;;;;;19.32;100.00;97936.01;2285549;77;20108;-58
2022/09/26 09:52:12;;;;;;;;;;;;;;;19.37;100.00;97938.97;2288653;77;20084;-59
2022/09/26 09:55:13;;;;;;;;;;;;;;;19.34;100.00;97933.99;2290058;77;20108;-58
2022/09/26 09:58:15;;;;;;;;;;;;;;;19.36;100.00;97931.16;2289218;77;20096;-59
2022/09/26 10:01:17;;;;;;;;;;;;;;;19.47;100.00;97930.80;2285710;77;20394;-58
2022/09/26 10:04:19;;;;;;;;;;;;;;;19.68;100.00;97935.53;2289079;77;20092;-58
2022/09/26 10:07:21;;;;;;;;;;;;;;;19.79;100.00;97936.17;2286055;77;20085;-58
2022/09/26 10:10:23;;;;;;;;;;;;;;;19.91;100.00;97934.76;2290140;77;20401;-58
2022/09/26 10:13:25;;;;;;;;;;;;;;;19.96;100.00;97929.75;2290408;77;20107;-59
2022/09/26 10:16:26;;;;;;;;;;;;;;;19.87;100.00;97932.15;2284140;77;20134;-58
2022/09/26 10:19:29;;;;;;;;;;;;;;;19.89;100.00;97930.13;2289907;77;20398;-58
2022/09/26 10:22:32;;;;;;;;;;;;;;;19.78;100.00;97933.14;2248486;77;20170;-58
2022/09/26 10:25:34;;;;;;;;;;;;;;;19.86;100.00;97928.64;2288034;77;20206;-58
2022/09/26 10:28:36;;;;;;;;;;;;;;;19.76;100.00;97926.67;2286279;77;20413;-58
2022/09/26 10:31:38;;;;;;;;;;;;;;;19.74;100.00;97925.52;2285494;77;20100;-58
2022/09/26 10:34:40;;;;;;;;;;;;;;;19.67;100.00;97920.56;2277363;77;20155;-58
2022/09/26 10:37:41;;;;;;;;;;;;;;;19.73;100.00;97918.53;2287112;77;20433;-58
2022/09/26 10:40:44;;;;;;;;;;;;;;;19.73;100.00;97915.05;2285833;77;20099;-59
2022/09/26 10:43:47;;;;;;;;;;;;;;;19.71;100.00;97914.38;2283970;77;20088;-58
2022/09/26 10:46:49;;;;;;;;;;;;;;;19.90;100.00;97911.84;2248812;77;20104;-58
2022/09/26 10:49:50;;;;;;;;;;;;;;;20.10;100.00;97908.70;2286251;77;20099;-58
2022/09/26 10:52:52;;;;;;;;;;;;;;;20.06;100.00;97898.41;2286622;77;20442;-58
2022/09/26 10:55:56;;;;;;;;;;;;;;;20.12;100.00;97896.87;2285292;77;20158;-58
2022/09/26 10:58:58;;;;;;;;;;;;;;;20.37;100.00;97899.34;2289109;77;20391;-58
2022/09/26 11:02:01;;;;;;;;;;;;;;;20.45;100.00;97884.64;2284940;77;20115;-59
2022/09/26 11:08:06;;;;;;;;;;;;;;;20.19;100.00;97882.37;2269155;77;20132;-59
2022/09/26 11:11:10;;;;;;;;;;;;;;;20.11;100.00;97880.58;2287163;77;20179;-58
2022/09/26 11:14:11;;;;;;;;;;;;;;;20.06;100.00;97881.11;2251657;77;20112;-58
2022/09/26 11:17:13;;;;;;;;;;;;;;;20.07;100.00;97871.31;2285799;77;20092;-58
2022/09/26 11:20:16;;;;;;;;;;;;;;;20.45;100.00;97872.66;2290584;77;20445;-58
2022/09/26 11:23:18;;;;;;;;;;;;;;;20.30;100.00;97871.30;2288645;77;20434;-58
2022/09/26 11:26:20;;;;;;;;;;;;;;;20.22;100.00;97876.68;2285782;77;20149;-59
2022/09/26 11:29:23;;;;;;;;;;;;;;;20.20;100.00;97873.35;2285947;77;20092;-58
2022/09/26 11:32:25;;;;;;;;;;;;;;;20.45;100.00;97877.98;2282245;77;20108;-58
2022/09/26 11:35:28;;;;;;;;;;;;;;;20.50;100.00;97870.30;2289502;77;20116;-58
2022/09/26 11:38:34;;;;;;;;;;;;;;;20.52;100.00;97867.45;2290230;77;20103;-58
2022/09/26 11:44:37;;;;;;;;;;;;;;;20.43;100.00;97866.19;2248661;78;20434;-59
2022/09/26 11:47:38;;;;;;;;;;;;;;;20.23;100.00;97866.37;2284526;78;20092;-58
2022/09/26 11:50:40;;;;;;;;;;;;;;;20.13;100.00;97869.27;2287589;77;20379;-59
2022/09/26 11:53:41;;;;;;;;;;;;;;;20.29;100.00;97866.16;2287492;77;20100;-58
2022/09/26 11:56:43;;;;;;;;;;;;;;;20.26;100.00;97864.67;2281842;77;20187;-59
2022/09/26 11:59:45;;;;;;;;;;;;;;;20.23;100.00;97862.38;2285092;77;20413;-58
2022/09/26 12:02:47;;;;;;;;;;;;;;;20.56;100.00;97862.09;2288619;77;20128;-58
2022/09/26 12:05:49;;;;;;;;;;;;;;;21.34;100.00;97859.11;2285277;77;20136;-59
2022/09/26 12:08:50;;;;;;;;;;;;;;;21.74;100.00;97863.61;2286452;77;20382;-59
2022/09/26 12:11:52;;;;;;;;;;;;;;;21.76;100.00;97862.38;2275799;77;20131;-59
2022/09/26 12:14:54;;;;;;;;;;;;;;;21.63;100.00;97856.91;2286993;77;20107;-59
2022/09/26 12:17:58;;;;;;;;;;;;;;;21.52;100.00;97860.06;2288557;77;20092;-59
2022/09/26 12:20:58;;;;;;;;;;;;;;;21.42;100.00;97866.50;2249988;78;20552;-58
2022/09/26 12:24:00;;;;;;;;;;;;;;;21.26;100.00;97864.02;2287951;77;20140;-58
2022/09/26 12:44:48;;;;;;;23.52;9.40;;;;;;;21.58;100.00;97839.32;2232021;79;22867;-61
2022/09/26 12:47:49;;;;;;;21.43;9.60;;;;;;;21.44;100.00;97845.78;2195429;81;21023;-62
2022/09/26 12:50:50;;;;;;;22.22;10.25;;;;;;;21.25;100.00;97835.72;2265386;78;21051;-62
2022/09/26 12:53:50;;;;;;;22.90;10.83;;;;;;;21.13;100.00;97835.34;2265617;79;21453;-62
2022/09/26 12:56:53;;;;;;;23.93;11.00;;;;;;;21.03;100.00;97834.80;2265323;79;21604;-62
2022/09/26 12:59:53;;;;;;;23.85;10.60;;;;;;;20.89;100.00;97826.63;2234126;79;20982;-62
2022/09/26 13:06:17;;;;;;;23.22;11.10;;;;;;;20.81;100.00;97828.56;2265509;79;21011;-63
2022/09/26 13:23:46;;;;;;;24.90;11.18;;;;;;;21.33;100.00;97823.59;2238421;79;22836;-61
2022/09/26 13:26:47;;;;;;;23.00;10.40;;;;;;;21.19;100.00;97824.44;2189344;81;21059;-58
2022/09/26 13:29:48;;;;;;;22.73;9.43;;;;;;;21.34;100.00;97822.59;2189048;81;21016;-58
2022/09/26 13:32:49;;;;;;;21.77;9.67;;;;;;;21.38;100.00;97822.53;2189507;81;21004;-58
2022/09/26 13:35:50;;;;;;;22.77;9.53;;;;;;;21.06;100.00;97823.77;2189366;81;21012;-62
2022/09/26 13:38:52;;;;;;;21.65;9.60;;;;;;;20.72;100.00;97823.31;2189568;81;21060;-62
2022/09/26 13:53:56;;;;;;;21.00;8.60;;;;;;;20.45;100.00;97814.59;2238526;79;22830;-60
2022/09/26 13:56:57;;;;;;;23.35;9.43;;;;;;;20.31;100.00;97813.54;2189241;80;20992;-61
2022/09/26 13:59:57;;;;;;;22.70;9.00;;;;;;;20.13;100.00;97808.04;2189706;81;20968;-60
2022/09/26 14:02:58;;;;;;;23.83;9.45;;;;;;;20.21;100.00;97805.31;2189191;81;21107;-62
2022/09/26 14:05:58;;;;;;;21.73;8.68;;;;;;;20.71;100.00;97803.00;2189691;81;20976;-59
2022/09/26 14:12:01;;;;;;;23.02;9.83;;;;;;;20.99;100.00;97802.38;2130956;83;20999;-60
2022/09/26 14:15:02;;;;;;;22.80;9.83;;;;;;;20.58;100.00;97800.13;2147734;83;20940;-59
2022/09/26 14:18:03;;;;;;;21.42;9.33;;;;;;;20.40;100.00;97794.65;2147742;83;21004;-59
2022/09/26 14:21:04;;;;;;;22.30;10.03;;;;;;;20.15;100.00;97788.71;2147430;83;21122;-61
2022/09/26 14:24:05;;;;;;;22.90;10.63;;;;;;;19.91;100.00;97787.08;2130635;84;21164;-60
2022/09/26 14:27:06;;;;;;;24.12;10.53;;;;;;;19.78;100.00;97789.48;2130716;84;21504;-60
2022/09/26 14:30:07;;;;;;;22.45;10.48;;;;;;;19.65;100.00;97788.27;2144281;83;21036;-59
2022/09/26 14:33:08;;;;;;;23.40;10.03;;;;;;;19.50;100.00;97785.52;2144587;83;21515;-60
2022/09/26 14:36:09;;;;;;;25.23;10.20;;;;;;;19.32;100.00;97780.97;2144604;83;21067;-59
2022/09/26 14:39:10;;;;;;;24.00;10.45;;;;;;;19.14;100.00;97788.70;2144206;83;21039;-58
2022/09/26 14:42:10;;;;;;;24.70;10.78;;;;;;;19.00;100.00;97789.44;2144351;83;21103;-60
2022/09/26 14:45:11;;;;;;;24.77;11.45;;;;;;;19.08;100.00;97788.08;2144428;83;21087;-61
2022/09/26 15:02:33;;;;;;;23.35;11.25;;;;;;;20.31;100.00;97768.28;2291152;77;22323;-60
2022/09/26 15:05:34;;;;;;;22.98;10.95;;;;;;;20.28;100.00;97775.30;2192905;81;20993;-60
2022/09/26 15:08:35;;;;;;;25.60;11.10;;;;;;;19.94;100.00;97772.59;2175623;82;21471;-59
2022/09/26 15:11:35;;;;;;;25.20;11.07;;;;;;;19.50;100.00;97787.36;2193051;81;21503;-60
2022/09/26 15:14:36;;;;;;;26.17;12.30;;;;;;;19.10;100.00;97787.39;2175616;82;20988;-59
2022/09/26 15:17:37;;;;;;;25.45;12.73;;;;;;;18.68;100.00;97784.03;2193065;81;20924;-59
2022/09/26 15:20:37;;;;;;;38.28;20.95;;;;;;;18.27;100.00;97787.27;2175603;82;21013;-63
2022/09/26 15:23:37;;;;;;;35.43;17.80;;;;;;;17.97;100.00;97785.63;2192628;81;21438;-64
2022/09/26 15:26:38;;;;;;;28.52;14.60;;;;;;;17.63;100.00;97791.39;2175541;82;20945;-59
2022/09/26 15:29:38;;;;;;;27.42;14.53;;;;;;;17.31;100.00;97792.98;2192679;81;21007;-59
2022/09/26 15:32:39;;;;;;;31.30;17.27;;;;;;;17.07;100.00;97786.30;2175779;82;20984;-63
2022/09/26 15:35:39;;;;;;;30.48;16.62;;;;;;;16.81;100.00;97788.47;2192938;81;20998;-60
2022/09/26 15:38:40;;;;;;;31.90;17.35;;;;;;;16.54;100.00;97790.81;2175735;82;21084;-59
2022/09/26 15:44:43;;;;;;;;;;;;;;;16.14;100.00;97792.20;2153181;82;20981;-59
2022/09/26 15:47:43;;;;;;;30.82;15.10;;;;;;;15.98;100.00;97791.59;2186137;81;20421;-63
2022/09/26 15:50:44;;;;;;;30.90;15.03;;;;;;;15.91;100.00;97789.53;2186215;81;21027;-63
2022/09/26 15:53:45;;;;;;;27.25;14.28;;;;;;;15.83;100.00;97793.45;2185884;81;21091;-60
2022/09/26 15:56:45;;;;;;;29.05;15.20;;;;;;;15.80;100.00;97789.77;2186202;81;21015;-59
2022/09/26 15:59:46;;;;;;;30.15;15.58;;;;;;;15.75;100.00;97784.91;2185927;81;21091;-59
2022/09/26 16:02:47;;;;;;;31.77;16.17;;;;;;;15.75;100.00;97789.38;2185773;81;21506;-59
2022/09/26 16:05:48;;;;;;;30.60;16.35;;;;;;;15.70;100.00;97780.59;2185957;81;20992;-59
2022/09/26 16:08:48;;;;;;;30.23;15.43;;;;;;;15.65;100.00;97779.38;2186073;81;21533;-59
2022/09/26 16:11:50;;;;;;;31.48;15.88;;;;;;;15.59;100.00;97776.84;2185635;81;21004;-59
2022/09/26 16:14:50;;;;;;;30.82;15.58;;;;;;;15.50;100.00;97773.77;2192181;81;21057;-63
2022/09/26 16:17:51;;;;;;;29.65;14.43;;;;;;;15.37;100.00;97780.27;2171948;82;21073;-60
2022/09/26 16:20:52;;;;;;;29.12;15.05;;;;;;;15.29;100.00;97770.94;2192530;81;21494;-63
2022/09/26 16:23:52;;;;;;;31.77;17.10;;;;;;;15.20;100.00;97771.81;2171808;82;20993;-60
2022/09/26 16:26:53;;;;;;;33.75;19.48;;;;;;;15.12;100.00;97763.81;2192645;81;21023;-60
2022/09/26 16:29:53;;;;;;;36.25;22.07;;;;;;;15.09;100.00;97766.77;2172108;82;21005;-63
2022/09/26 16:32:54;;;;;;;33.42;19.42;;;;;;;15.03;100.00;97764.22;2192545;81;20999;-60
2022/09/26 16:35:55;;;;;;;33.55;17.52;;;;;;;14.97;100.00;97763.47;2171898;82;21475;-64
2022/09/26 16:38:55;;;;;;;33.13;16.50;;;;;;;14.92;100.00;97765.73;2192516;81;21022;-59
2022/09/26 16:41:56;;;;;;;29.72;15.53;;;;;;;14.83;100.00;97772.23;2172032;82;21040;-59
2022/09/26 16:44:57;;;;;;;31.52;15.63;;;;;;;14.73;100.00;97762.21;2192523;81;20964;-62
2022/09/26 16:47:58;;;;;;;29.00;15.93;;;;;;;14.68;100.00;97763.13;2172065;82;21020;-63